sensor_id;sensor_type;location;lat;lon;timestamp;pressure;altitude;pressure_sealevel;temperature;humidity
38880;BME280;25887;30.194;-97.880;2022-12-18T00:01:36;99081.94;;;14.32;36.29
38880;BME280;25887;30.194;-97.880;2022-12-18T00:04:03;99086.25;;;14.29;36.12
38880;BME280;25887;30.194;-97.880;2022-12-18T00:06:31;99086.28;;;14.24;35.98
38880;BME280;25887;30.194;-97.880;2022-12-18T00:09:00;99090.59;;;14.19;36.17
38880;BME280;25887;30.194;-97.880;2022-12-18T00:11:27;99089.75;;;14.17;36.05
38880;BME280;25887;30.194;-97.880;2022-12-18T00:13:54;99091.44;;;14.13;36.13
38880;BME280;25887;30.194;-97.880;2022-12-18T00:16:21;99094.91;;;14.11;36.00
38880;BME280;25887;30.194;-97.880;2022-12-18T00:18:47;99081.13;;;14.06;36.29
38880;BME280;25887;30.194;-97.880;2022-12-18T00:21:13;99093.22;;;14.02;36.33
38880;BME280;25887;30.194;-97.880;2022-12-18T00:23:40;99095.81;;;13.98;36.28
38880;BME280;25887;30.194;-97.880;2022-12-18T00:26:07;99101.00;;;13.93;36.23
38880;BME280;25887;30.194;-97.880;2022-12-18T00:28:34;99103.56;;;13.90;36.02
38880;BME280;25887;30.194;-97.880;2022-12-18T00:31:04;99107.03;;;13.83;36.24
38880;BME280;25887;30.194;-97.880;2022-12-18T00:33:30;99107.88;;;13.77;36.26
38880;BME280;25887;30.194;-97.880;2022-12-18T00:36:06;99122.53;;;13.74;36.18
38880;BME280;25887;30.194;-97.880;2022-12-18T00:38:33;99123.38;;;13.68;36.33
38880;BME280;25887;30.194;-97.880;2022-12-18T00:40:59;99113.94;;;13.62;36.21
38880;BME280;25887;30.194;-97.880;2022-12-18T00:43:24;99119.97;;;13.57;36.20
38880;BME280;25887;30.194;-97.880;2022-12-18T00:45:50;99129.41;;;13.52;36.33
38880;BME280;25887;30.194;-97.880;2022-12-18T00:48:16;99127.69;;;13.46;36.26
38880;BME280;25887;30.194;-97.880;2022-12-18T00:50:42;99139.75;;;13.43;35.99
38880;BME280;25887;30.194;-97.880;2022-12-18T00:53:10;99149.19;;;13.37;35.93
38880;BME280;25887;30.194;-97.880;2022-12-18T00:55:39;99146.63;;;13.34;36.03
38880;BME280;25887;30.194;-97.880;2022-12-18T00:58:05;99137.13;;;13.30;35.88
38880;BME280;25887;30.194;-97.880;2022-12-18T01:00:31;99131.13;;;13.25;35.78
38880;BME280;25887;30.194;-97.880;2022-12-18T01:02:57;99144.00;;;13.21;36.31
38880;BME280;25887;30.194;-97.880;2022-12-18T01:05:22;99147.44;;;13.15;35.93
38880;BME280;25887;30.194;-97.880;2022-12-18T01:07:48;99151.72;;;13.10;36.14
38880;BME280;25887;30.194;-97.880;2022-12-18T01:10:14;99142.22;;;13.06;35.97
38880;BME280;25887;30.194;-97.880;2022-12-18T01:12:40;99141.38;;;13.02;36.06
38880;BME280;25887;30.194;-97.880;2022-12-18T01:15:12;99159.41;;;12.96;36.32
38880;BME280;25887;30.194;-97.880;2022-12-18T01:17:38;99174.00;;;12.90;36.27
38880;BME280;25887;30.194;-97.880;2022-12-18T01:20:22;99167.09;;;12.82;35.94
38880;BME280;25887;30.194;-97.880;2022-12-18T01:22:47;99165.38;;;12.77;35.96
38880;BME280;25887;30.194;-97.880;2022-12-18T01:25:13;99171.34;;;12.71;36.41
38880;BME280;25887;30.194;-97.880;2022-12-18T01:27:39;99176.47;;;12.65;36.32
38880;BME280;25887;30.194;-97.880;2022-12-18T01:30:05;99177.31;;;12.60;36.10
38880;BME280;25887;30.194;-97.880;2022-12-18T01:32:31;99173.00;;;12.54;36.20
38880;BME280;25887;30.194;-97.880;2022-12-18T01:34:57;99172.97;;;12.48;36.24
38880;BME280;25887;30.194;-97.880;2022-12-18T01:37:23;99172.94;;;12.42;36.17
38880;BME280;25887;30.194;-97.880;2022-12-18T01:39:48;99170.31;;;12.36;36.34
38880;BME280;25887;30.194;-97.880;2022-12-18T01:42:15;99178.88;;;12.28;36.57
38880;BME280;25887;30.194;-97.880;2022-12-18T01:47:27;99203.66;;;12.11;36.43
38880;BME280;25887;30.194;-97.880;2022-12-18T01:49:55;99213.91;;;12.05;36.32
38880;BME280;25887;30.194;-97.880;2022-12-18T01:52:21;99224.16;;;11.96;36.39
38880;BME280;25887;30.194;-97.880;2022-12-18T01:54:48;99212.06;;;11.89;36.61
38880;BME280;25887;30.194;-97.880;2022-12-18T01:57:18;99201.66;;;11.80;36.52
38880;BME280;25887;30.194;-97.880;2022-12-18T01:59:45;99210.19;;;11.71;36.52
38880;BME280;25887;30.194;-97.880;2022-12-18T02:02:14;99230.69;;;11.63;36.57
38880;BME280;25887;30.194;-97.880;2022-12-18T02:04:40;99234.91;;;11.57;36.69
38880;BME280;25887;30.194;-97.880;2022-12-18T02:09:33;99225.41;;;11.48;36.72
38880;BME280;25887;30.194;-97.880;2022-12-18T02:12:23;99236.50;;;11.42;36.97
38880;BME280;25887;30.194;-97.880;2022-12-18T02:19:42;99240.59;;;11.24;36.90
38880;BME280;25887;30.194;-97.880;2022-12-18T02:24:48;99240.44;;;11.11;36.86
38880;BME280;25887;30.194;-97.880;2022-12-18T02:27:19;99248.91;;;11.04;37.01
38880;BME280;25887;30.194;-97.880;2022-12-18T02:29:49;99255.72;;;10.98;37.06
38880;BME280;25887;30.194;-97.880;2022-12-18T02:32:17;99265.91;;;10.90;37.20
38880;BME280;25887;30.194;-97.880;2022-12-18T02:34:44;99260.69;;;10.84;37.10
38880;BME280;25887;30.194;-97.880;2022-12-18T02:37:11;99258.91;;;10.80;37.14
38880;BME280;25887;30.194;-97.880;2022-12-18T02:39:38;99256.25;;;10.74;37.42
38880;BME280;25887;30.194;-97.880;2022-12-18T02:42:05;99263.91;;;10.68;37.31
38880;BME280;25887;30.194;-97.880;2022-12-18T02:44:51;99250.06;;;10.59;37.08
38880;BME280;25887;30.194;-97.880;2022-12-18T02:47:18;99252.56;;;10.55;37.24
38880;BME280;25887;30.194;-97.880;2022-12-18T02:58:04;99247.94;;;10.31;37.49
38880;BME280;25887;30.194;-97.880;2022-12-18T03:03:01;99258.13;;;10.25;37.42
38880;BME280;25887;30.194;-97.880;2022-12-18T03:05:31;99256.41;;;10.24;37.39
38880;BME280;25887;30.194;-97.880;2022-12-18T03:08:05;99254.66;;;10.23;37.49
38880;BME280;25887;30.194;-97.880;2022-12-18T03:10:32;99253.75;;;10.21;37.87
38880;BME280;25887;30.194;-97.880;2022-12-18T03:13:06;99255.41;;;10.19;37.80
38880;BME280;25887;30.194;-97.880;2022-12-18T03:15:41;99270.78;;;10.16;38.09
38880;BME280;25887;30.194;-97.880;2022-12-18T03:18:12;99279.28;;;10.12;37.72
38880;BME280;25887;30.194;-97.880;2022-12-18T03:20:40;99271.59;;;10.12;37.95
38880;BME280;25887;30.194;-97.880;2022-12-18T03:23:12;99263.88;;;10.12;37.79
38880;BME280;25887;30.194;-97.880;2022-12-18T03:25:40;99264.69;;;10.09;38.02
38880;BME280;25887;30.194;-97.880;2022-12-18T03:28:07;99264.66;;;10.08;38.11
38880;BME280;25887;30.194;-97.880;2022-12-18T03:30:34;99266.34;;;10.05;38.02
38880;BME280;25887;30.194;-97.880;2022-12-18T03:33:14;99269.75;;;10.04;37.69
38880;BME280;25887;30.194;-97.880;2022-12-18T03:35:43;99274.81;;;10.01;38.25
38880;BME280;25887;30.194;-97.880;2022-12-18T03:38:09;99274.78;;;9.97;38.13
38880;BME280;25887;30.194;-97.880;2022-12-18T03:40:41;99279.84;;;9.94;38.25
38880;BME280;25887;30.194;-97.880;2022-12-18T03:43:55;99282.38;;;9.92;38.16
38880;BME280;25887;30.194;-97.880;2022-12-18T03:45:59;99281.50;;;9.90;38.38
38880;BME280;25887;30.194;-97.880;2022-12-18T03:48:31;99291.69;;;9.87;38.15
38880;BME280;25887;30.194;-97.880;2022-12-18T03:51:08;99287.34;;;9.82;38.26
38880;BME280;25887;30.194;-97.880;2022-12-18T03:53:53;99286.34;;;9.73;37.79
38880;BME280;25887;30.194;-97.880;2022-12-18T03:56:22;99281.09;;;9.67;38.26
38880;BME280;25887;30.194;-97.880;2022-12-18T03:58:50;99279.28;;;9.62;37.75
38880;BME280;25887;30.194;-97.880;2022-12-18T04:01:18;99276.56;;;9.54;38.64
38880;BME280;25887;30.194;-97.880;2022-12-18T04:03:46;99272.19;;;9.48;38.40
38880;BME280;25887;30.194;-97.880;2022-12-18T04:06:14;99278.09;;;9.43;37.79
38880;BME280;25887;30.194;-97.880;2022-12-18T04:08:42;99275.41;;;9.38;37.69
38880;BME280;25887;30.194;-97.880;2022-12-18T04:11:08;99279.56;;;9.32;37.87
38880;BME280;25887;30.194;-97.880;2022-12-18T04:13:35;99281.19;;;9.27;38.50
38880;BME280;25887;30.194;-97.880;2022-12-18T04:16:02;99281.09;;;9.24;38.08
38880;BME280;25887;30.194;-97.880;2022-12-18T04:18:29;99283.59;;;9.19;37.99
38880;BME280;25887;30.194;-97.880;2022-12-18T04:20:55;99288.66;;;9.16;38.23
38880;BME280;25887;30.194;-97.880;2022-12-18T04:23:21;99284.25;;;9.10;38.50
38880;BME280;25887;30.194;-97.880;2022-12-18T04:25:47;99291.88;;;9.06;37.93
38880;BME280;25887;30.194;-97.880;2022-12-18T04:28:13;99300.31;;;9.02;39.03
38880;BME280;25887;30.194;-97.880;2022-12-18T04:30:42;99310.47;;;8.96;37.85
38880;BME280;25887;30.194;-97.880;2022-12-18T04:33:08;99317.16;;;8.90;38.52
38880;BME280;25887;30.194;-97.880;2022-12-18T04:35:35;99317.06;;;8.86;38.38
38880;BME280;25887;30.194;-97.880;2022-12-18T04:38:00;99314.38;;;8.80;38.80
38880;BME280;25887;30.194;-97.880;2022-12-18T04:43:29;99316.53;;;8.63;38.33
38880;BME280;25887;30.194;-97.880;2022-12-18T04:46:05;99313.75;;;8.52;38.03
38880;BME280;25887;30.194;-97.880;2022-12-18T04:48:31;99315.25;;;8.43;38.60
38880;BME280;25887;30.194;-97.880;2022-12-18T04:50:58;99308.31;;;8.38;39.02
38880;BME280;25887;30.194;-97.880;2022-12-18T04:53:23;99312.53;;;8.36;38.94
38880;BME280;25887;30.194;-97.880;2022-12-18T04:55:49;99315.91;;;8.35;39.14
38880;BME280;25887;30.194;-97.880;2022-12-18T04:58:15;99307.31;;;8.33;38.52
38880;BME280;25887;30.194;-97.880;2022-12-18T05:00:41;99308.94;;;8.31;38.81
38880;BME280;25887;30.194;-97.880;2022-12-18T05:03:07;99316.63;;;8.31;39.17
38880;BME280;25887;30.194;-97.880;2022-12-18T05:05:36;99317.44;;;8.29;38.61
38880;BME280;25887;30.194;-97.880;2022-12-18T05:08:03;99319.97;;;8.27;38.56
38880;BME280;25887;30.194;-97.880;2022-12-18T05:10:28;99320.72;;;8.25;39.06
38880;BME280;25887;30.194;-97.880;2022-12-18T05:12:54;99324.09;;;8.22;38.92
38880;BME280;25887;30.194;-97.880;2022-12-18T05:15:23;99327.44;;;8.18;38.66
38880;BME280;25887;30.194;-97.880;2022-12-18T05:17:49;99334.06;;;8.10;39.06
38880;BME280;25887;30.194;-97.880;2022-12-18T05:20:15;99335.56;;;8.02;38.82
38880;BME280;25887;30.194;-97.880;2022-12-18T05:22:43;99324.25;;;7.94;39.21
38880;BME280;25887;30.194;-97.880;2022-12-18T05:25:09;99321.44;;;7.85;39.25
38880;BME280;25887;30.194;-97.880;2022-12-18T05:27:35;99317.81;;;7.76;38.78
38880;BME280;25887;30.194;-97.880;2022-12-18T05:30:01;99327.13;;;7.73;38.64
38880;BME280;25887;30.194;-97.880;2022-12-18T05:32:27;99327.06;;;7.71;39.31
38880;BME280;25887;30.194;-97.880;2022-12-18T05:34:53;99316.78;;;7.70;39.19
38880;BME280;25887;30.194;-97.880;2022-12-18T05:37:19;99308.25;;;7.69;38.56
38880;BME280;25887;30.194;-97.880;2022-12-18T05:39:46;99312.47;;;7.67;39.17
38880;BME280;25887;30.194;-97.880;2022-12-18T05:42:12;99315.84;;;7.66;39.26
38880;BME280;25887;30.194;-97.880;2022-12-18T05:44:37;99309.00;;;7.65;39.13
38880;BME280;25887;30.194;-97.880;2022-12-18T05:47:03;99303.03;;;7.65;39.29
38880;BME280;25887;30.194;-97.880;2022-12-18T05:49:29;99303.03;;;7.65;39.05
38880;BME280;25887;30.194;-97.880;2022-12-18T05:51:55;99307.25;;;7.63;39.62
38880;BME280;25887;30.194;-97.880;2022-12-18T05:54:21;99305.56;;;7.63;38.78
38880;BME280;25887;30.194;-97.880;2022-12-18T05:56:47;99304.69;;;7.63;38.97
38880;BME280;25887;30.194;-97.880;2022-12-18T05:59:13;99308.91;;;7.62;39.30
38880;BME280;25887;30.194;-97.880;2022-12-18T06:01:38;99302.94;;;7.62;39.57
38880;BME280;25887;30.194;-97.880;2022-12-18T06:04:04;99316.56;;;7.62;39.11
38880;BME280;25887;30.194;-97.880;2022-12-18T06:06:30;99314.84;;;7.61;39.15
38880;BME280;25887;30.194;-97.880;2022-12-18T06:08:56;99322.50;;;7.60;39.16
38880;BME280;25887;30.194;-97.880;2022-12-18T06:11:23;99330.94;;;7.57;39.63
38880;BME280;25887;30.194;-97.880;2022-12-18T06:13:53;99327.50;;;7.55;39.73
38880;BME280;25887;30.194;-97.880;2022-12-18T06:16:19;99320.56;;;7.51;39.67
38880;BME280;25887;30.194;-97.880;2022-12-18T06:18:45;99325.59;;;7.48;39.79
38880;BME280;25887;30.194;-97.880;2022-12-18T06:21:11;99324.63;;;7.44;39.48
38880;BME280;25887;30.194;-97.880;2022-12-18T06:23:37;99317.72;;;7.40;39.67
38880;BME280;25887;30.194;-97.880;2022-12-18T06:26:04;99311.63;;;7.37;39.76
38880;BME280;25887;30.194;-97.880;2022-12-18T06:28:30;99320.09;;;7.34;39.61
38880;BME280;25887;30.194;-97.880;2022-12-18T06:30:56;99311.44;;;7.31;39.82
38880;BME280;25887;30.194;-97.880;2022-12-18T06:33:25;99314.84;;;7.30;39.64
38880;BME280;25887;30.194;-97.880;2022-12-18T06:35:51;99313.09;;;7.29;39.56
38880;BME280;25887;30.194;-97.880;2022-12-18T06:38:16;99315.63;;;7.27;39.57
38880;BME280;25887;30.194;-97.880;2022-12-18T06:40:42;99320.72;;;7.25;39.62
38880;BME280;25887;30.194;-97.880;2022-12-18T06:43:08;99316.41;;;7.24;39.62
38880;BME280;25887;30.194;-97.880;2022-12-18T06:45:34;99312.91;;;7.21;39.47
38880;BME280;25887;30.194;-97.880;2022-12-18T06:48:00;99314.50;;;7.17;39.53
38880;BME280;25887;30.194;-97.880;2022-12-18T06:50:26;99320.44;;;7.16;39.70
38880;BME280;25887;30.194;-97.880;2022-12-18T06:52:52;99314.34;;;7.11;39.48
38880;BME280;25887;30.194;-97.880;2022-12-18T06:55:17;99318.56;;;7.11;39.64
38880;BME280;25887;30.194;-97.880;2022-12-18T06:57:43;99315.88;;;7.06;39.66
38880;BME280;25887;30.194;-97.880;2022-12-18T07:00:09;99322.72;;;7.07;39.78
38880;BME280;25887;30.194;-97.880;2022-12-18T07:02:35;99325.22;;;7.06;39.83
38880;BME280;25887;30.194;-97.880;2022-12-18T07:05:01;99329.44;;;7.04;39.62
38880;BME280;25887;30.194;-97.880;2022-12-18T07:07:27;99331.03;;;7.00;39.88
38880;BME280;25887;30.194;-97.880;2022-12-18T07:09:52;99331.03;;;7.00;39.86
38880;BME280;25887;30.194;-97.880;2022-12-18T07:12:18;99330.94;;;6.97;39.89
38880;BME280;25887;30.194;-97.880;2022-12-18T07:14:44;99329.22;;;6.96;39.69
38880;BME280;25887;30.194;-97.880;2022-12-18T07:17:10;99316.41;;;6.94;39.77
38880;BME280;25887;30.194;-97.880;2022-12-18T07:19:36;99317.22;;;6.93;39.90
38880;BME280;25887;30.194;-97.880;2022-12-18T07:22:01;99308.59;;;6.90;39.95
38880;BME280;25887;30.194;-97.880;2022-12-18T07:24:27;99306.00;;;6.88;39.74
38880;BME280;25887;30.194;-97.880;2022-12-18T07:26:53;99312.72;;;6.85;39.86
38880;BME280;25887;30.194;-97.880;2022-12-18T07:29:19;99304.97;;;6.83;39.94
38880;BME280;25887;30.194;-97.880;2022-12-18T07:31:45;99300.66;;;6.81;40.15
38880;BME280;25887;30.194;-97.880;2022-12-18T07:34:11;99304.81;;;6.77;39.98
38880;BME280;25887;30.194;-97.880;2022-12-18T07:36:37;99299.56;;;6.73;40.03
38880;BME280;25887;30.194;-97.880;2022-12-18T07:39:03;99294.31;;;6.68;40.18
38880;BME280;25887;30.194;-97.880;2022-12-18T07:41:29;99294.22;;;6.65;40.04
38880;BME280;25887;30.194;-97.880;2022-12-18T07:43:54;99295.00;;;6.62;40.04
38880;BME280;25887;30.194;-97.880;2022-12-18T07:46:20;99303.44;;;6.60;40.30
38880;BME280;25887;30.194;-97.880;2022-12-18T07:48:46;99311.00;;;6.57;40.18
38880;BME280;25887;30.194;-97.880;2022-12-18T07:51:12;99303.25;;;6.54;40.18
38880;BME280;25887;30.194;-97.880;2022-12-18T07:53:39;99301.41;;;6.50;40.06
38880;BME280;25887;30.194;-97.880;2022-12-18T07:56:06;99300.50;;;6.48;40.25
38880;BME280;25887;30.194;-97.880;2022-12-18T07:58:33;99310.59;;;6.45;40.37
38880;BME280;25887;30.194;-97.880;2022-12-18T08:01:06;99311.34;;;6.40;40.24
38880;BME280;25887;30.194;-97.880;2022-12-18T08:03:33;99312.91;;;6.37;40.24
38880;BME280;25887;30.194;-97.880;2022-12-18T08:06:02;99313.66;;;6.33;40.34
38880;BME280;25887;30.194;-97.880;2022-12-18T08:08:28;99317.78;;;6.29;40.16
38880;BME280;25887;30.194;-97.880;2022-12-18T08:10:55;99310.00;;;6.25;40.18
38880;BME280;25887;30.194;-97.880;2022-12-18T08:13:21;99311.53;;;6.20;40.63
38880;BME280;25887;30.194;-97.880;2022-12-18T08:15:55;99316.53;;;6.17;39.97
38880;BME280;25887;30.194;-97.880;2022-12-18T08:18:21;99313.06;;;6.14;40.15
38880;BME280;25887;30.194;-97.880;2022-12-18T08:20:47;99319.78;;;6.12;40.38
38880;BME280;25887;30.194;-97.880;2022-12-18T08:23:12;99309.59;;;6.12;40.20
38880;BME280;25887;30.194;-97.880;2022-12-18T08:25:38;99317.97;;;6.08;40.56
38880;BME280;25887;30.194;-97.880;2022-12-18T08:28:04;99322.97;;;6.05;40.56
38880;BME280;25887;30.194;-97.880;2022-12-18T08:30:30;99331.38;;;6.03;40.69
38880;BME280;25887;30.194;-97.880;2022-12-18T08:32:56;99333.91;;;6.01;40.89
38880;BME280;25887;30.194;-97.880;2022-12-18T08:35:22;99336.31;;;5.98;40.36
38880;BME280;25887;30.194;-97.880;2022-12-18T08:37:47;99334.59;;;5.97;40.66
38880;BME280;25887;30.194;-97.880;2022-12-18T08:40:13;99337.09;;;5.96;40.61
38880;BME280;25887;30.194;-97.880;2022-12-18T08:42:39;99337.91;;;5.95;40.27
38880;BME280;25887;30.194;-97.880;2022-12-18T08:45:23;99335.31;;;5.93;40.10
38880;BME280;25887;30.194;-97.880;2022-12-18T08:47:49;99335.13;;;5.88;40.84
38880;BME280;25887;30.194;-97.880;2022-12-18T08:50:15;99336.75;;;5.86;40.49
38880;BME280;25887;30.194;-97.880;2022-12-18T08:52:41;99340.13;;;5.85;40.68
38880;BME280;25887;30.194;-97.880;2022-12-18T08:55:07;99336.59;;;5.82;40.99
38880;BME280;25887;30.194;-97.880;2022-12-18T08:57:33;99338.13;;;5.77;40.45
38880;BME280;25887;30.194;-97.880;2022-12-18T08:59:59;99348.22;;;5.74;40.40
38880;BME280;25887;30.194;-97.880;2022-12-18T09:02:25;99347.28;;;5.72;40.47
38880;BME280;25887;30.194;-97.880;2022-12-18T09:04:51;99353.25;;;5.72;40.68
38880;BME280;25887;30.194;-97.880;2022-12-18T09:07:16;99346.38;;;5.70;40.94
38880;BME280;25887;30.194;-97.880;2022-12-18T09:09:42;99355.63;;;5.68;40.45
38880;BME280;25887;30.194;-97.880;2022-12-18T09:12:08;99359.88;;;5.67;40.48
38880;BME280;25887;30.194;-97.880;2022-12-18T09:14:34;99360.75;;;5.68;40.66
38880;BME280;25887;30.194;-97.880;2022-12-18T09:17:01;99353.16;;;5.69;40.52
38880;BME280;25887;30.194;-97.880;2022-12-18T09:19:26;99348.88;;;5.68;40.97
38880;BME280;25887;30.194;-97.880;2022-12-18T09:21:52;99348.06;;;5.69;40.55
38880;BME280;25887;30.194;-97.880;2022-12-18T09:24:18;99336.94;;;5.67;40.74
38880;BME280;25887;30.194;-97.880;2022-12-18T09:26:44;99342.78;;;5.65;40.63
38880;BME280;25887;30.194;-97.880;2022-12-18T09:29:10;99345.34;;;5.65;40.61
38880;BME280;25887;30.194;-97.880;2022-12-18T09:31:36;99343.63;;;5.64;41.16
38880;BME280;25887;30.194;-97.880;2022-12-18T09:34:03;99345.34;;;5.65;41.05
38880;BME280;25887;30.194;-97.880;2022-12-18T09:36:29;99341.06;;;5.64;40.94
38880;BME280;25887;30.194;-97.880;2022-12-18T09:38:57;99344.47;;;5.64;40.71
38880;BME280;25887;30.194;-97.880;2022-12-18T09:41:36;99347.84;;;5.63;40.57
38880;BME280;25887;30.194;-97.880;2022-12-18T09:44:13;99338.34;;;5.59;40.87
38880;BME280;25887;30.194;-97.880;2022-12-18T09:46:53;99336.56;;;5.56;40.69
38880;BME280;25887;30.194;-97.880;2022-12-18T09:49:21;99334.88;;;5.57;40.75
38880;BME280;25887;30.194;-97.880;2022-12-18T09:51:50;99331.47;;;5.56;40.65
38880;BME280;25887;30.194;-97.880;2022-12-18T09:54:20;99331.47;;;5.56;41.02
38880;BME280;25887;30.194;-97.880;2022-12-18T09:56:47;99334.84;;;5.55;40.90
38880;BME280;25887;30.194;-97.880;2022-12-18T09:59:34;99335.66;;;5.54;41.03
38880;BME280;25887;30.194;-97.880;2022-12-18T10:02:11;99328.00;;;5.54;40.48
38880;BME280;25887;30.194;-97.880;2022-12-18T10:04:38;99337.34;;;5.54;40.82
38880;BME280;25887;30.194;-97.880;2022-12-18T10:07:09;99336.38;;;5.52;40.84
38880;BME280;25887;30.194;-97.880;2022-12-18T10:09:44;99341.50;;;5.52;41.09
38880;BME280;25887;30.194;-97.880;2022-12-18T10:14:55;99338.84;;;5.49;40.74
38880;BME280;25887;30.194;-97.880;2022-12-18T10:22:53;99329.28;;;5.43;40.61
38880;BME280;25887;30.194;-97.880;2022-12-18T10:25:39;99333.44;;;5.40;40.77
38880;BME280;25887;30.194;-97.880;2022-12-18T10:28:11;99334.19;;;5.37;41.20
38880;BME280;25887;30.194;-97.880;2022-12-18T10:30:39;99329.88;;;5.36;41.34
38880;BME280;25887;30.194;-97.880;2022-12-18T10:33:05;99331.53;;;5.34;40.71
38880;BME280;25887;30.194;-97.880;2022-12-18T10:35:31;99328.88;;;5.31;41.39
38880;BME280;25887;30.194;-97.880;2022-12-18T10:40:26;99337.19;;;5.27;40.89
38880;BME280;25887;30.194;-97.880;2022-12-18T10:45:43;99336.19;;;5.22;41.50
38880;BME280;25887;30.194;-97.880;2022-12-18T10:48:22;99332.69;;;5.20;41.60
38880;BME280;25887;30.194;-97.880;2022-12-18T10:50:50;99336.88;;;5.18;41.12
38880;BME280;25887;30.194;-97.880;2022-12-18T10:53:20;99336.78;;;5.15;41.53
38880;BME280;25887;30.194;-97.880;2022-12-18T10:55:47;99328.19;;;5.13;41.46
38880;BME280;25887;30.194;-97.880;2022-12-18T11:01:08;99334.03;;;5.10;41.00
38880;BME280;25887;30.194;-97.880;2022-12-18T11:03:37;99335.69;;;5.08;41.53
38880;BME280;25887;30.194;-97.880;2022-12-18T11:06:04;99339.13;;;5.10;40.92
38880;BME280;25887;30.194;-97.880;2022-12-18T11:08:31;99336.63;;;5.12;40.92
38880;BME280;25887;30.194;-97.880;2022-12-18T11:10:57;99331.69;;;5.15;41.82
38880;BME280;25887;30.194;-97.880;2022-12-18T11:13:23;99324.13;;;5.18;41.67
38880;BME280;25887;30.194;-97.880;2022-12-18T11:15:50;99331.88;;;5.21;41.43
38880;BME280;25887;30.194;-97.880;2022-12-18T11:20:52;99329.31;;;5.21;41.67
38880;BME280;25887;30.194;-97.880;2022-12-18T11:23:19;99327.56;;;5.18;40.91
38880;BME280;25887;30.194;-97.880;2022-12-18T11:25:55;99332.53;;;5.15;41.67
38880;BME280;25887;30.194;-97.880;2022-12-18T11:31:16;99339.13;;;5.10;41.74
38880;BME280;25887;30.194;-97.880;2022-12-18T11:34:04;99350.19;;;5.11;41.34
38880;BME280;25887;30.194;-97.880;2022-12-18T11:36:32;99334.91;;;5.11;40.92
38880;BME280;25887;30.194;-97.880;2022-12-18T11:38:59;99338.16;;;5.07;41.55
38880;BME280;25887;30.194;-97.880;2022-12-18T11:41:32;99334.69;;;5.04;41.21
38880;BME280;25887;30.194;-97.880;2022-12-18T11:44:21;99339.66;;;5.01;40.99
38880;BME280;25887;30.194;-97.880;2022-12-18T11:46:52;99345.56;;;5.00;41.81
38880;BME280;25887;30.194;-97.880;2022-12-18T11:49:22;99343.84;;;4.99;41.83
38880;BME280;25887;30.194;-97.880;2022-12-18T11:54:21;99343.94;;;5.02;41.10
38880;BME280;25887;30.194;-97.880;2022-12-18T11:56:54;99341.41;;;5.02;41.37
38880;BME280;25887;30.194;-97.880;2022-12-18T11:59:33;99355.00;;;5.03;40.98
38880;BME280;25887;30.194;-97.880;2022-12-18T12:04:48;99349.94;;;5.04;41.56
38880;BME280;25887;30.194;-97.880;2022-12-18T12:07:28;99363.50;;;5.03;41.83
38880;BME280;25887;30.194;-97.880;2022-12-18T12:15:19;99360.81;;;4.99;41.29
38880;BME280;25887;30.194;-97.880;2022-12-18T12:17:51;99360.66;;;4.96;41.87
38880;BME280;25887;30.194;-97.880;2022-12-18T12:20:21;99366.63;;;4.96;41.29
38880;BME280;25887;30.194;-97.880;2022-12-18T12:25:19;99369.81;;;4.91;41.38
38880;BME280;25887;30.194;-97.880;2022-12-18T12:27:53;99372.38;;;4.91;41.27
38880;BME280;25887;30.194;-97.880;2022-12-18T12:30:29;99370.63;;;4.90;41.54
38880;BME280;25887;30.194;-97.880;2022-12-18T12:33:11;99377.38;;;4.89;42.06
38880;BME280;25887;30.194;-97.880;2022-12-18T12:40:35;99378.03;;;4.84;42.13
38880;BME280;25887;30.194;-97.880;2022-12-18T12:43:16;99387.28;;;4.82;41.70
38880;BME280;25887;30.194;-97.880;2022-12-18T12:46:03;99382.06;;;4.79;41.64
38880;BME280;25887;30.194;-97.880;2022-12-18T12:51:16;99392.16;;;4.75;41.62
38880;BME280;25887;30.194;-97.880;2022-12-18T12:53:43;99383.56;;;4.73;41.52
38880;BME280;25887;30.194;-97.880;2022-12-18T12:56:10;99383.44;;;4.70;41.94
38880;BME280;25887;30.194;-97.880;2022-12-18T12:59:24;99390.22;;;4.70;41.90
38880;BME280;25887;30.194;-97.880;2022-12-18T13:01:25;99383.41;;;4.69;41.44
38880;BME280;25887;30.194;-97.880;2022-12-18T13:04:04;99384.22;;;4.68;41.94
38880;BME280;25887;30.194;-97.880;2022-12-18T13:09:18;99375.53;;;4.63;41.79
38880;BME280;25887;30.194;-97.880;2022-12-18T13:11:44;99370.38;;;4.61;42.19
38880;BME280;25887;30.194;-97.880;2022-12-18T13:14:34;99382.97;;;4.58;41.65
38880;BME280;25887;30.194;-97.880;2022-12-18T13:17:16;99388.00;;;4.57;41.78
38880;BME280;25887;30.194;-97.880;2022-12-18T13:19:42;99391.41;;;4.57;42.00
38880;BME280;25887;30.194;-97.880;2022-12-18T13:22:22;99389.81;;;4.59;41.91
38880;BME280;25887;30.194;-97.880;2022-12-18T13:24:48;99392.34;;;4.59;41.69
38880;BME280;25887;30.194;-97.880;2022-12-18T13:35:50;99398.53;;;4.66;41.61
38880;BME280;25887;30.194;-97.880;2022-12-18T13:38:36;99393.38;;;4.64;41.61
38880;BME280;25887;30.194;-97.880;2022-12-18T13:48:57;99400.22;;;4.65;42.22
38880;BME280;25887;30.194;-97.880;2022-12-18T13:51:25;99399.34;;;4.65;41.67
38880;BME280;25887;30.194;-97.880;2022-12-18T13:53:56;99403.72;;;4.67;42.54
38880;BME280;25887;30.194;-97.880;2022-12-18T13:56:26;99406.31;;;4.69;41.98
38880;BME280;25887;30.194;-97.880;2022-12-18T14:01:30;99410.63;;;4.71;41.86
38880;BME280;25887;30.194;-97.880;2022-12-18T14:04:09;99409.88;;;4.74;41.93
38880;BME280;25887;30.194;-97.880;2022-12-18T14:06:35;99418.38;;;4.74;42.15
38880;BME280;25887;30.194;-97.880;2022-12-18T14:09:01;99413.38;;;4.76;42.26
38880;BME280;25887;30.194;-97.880;2022-12-18T14:11:28;99420.31;;;4.80;41.87
38880;BME280;25887;30.194;-97.880;2022-12-18T14:13:55;99414.53;;;4.84;42.00
38880;BME280;25887;30.194;-97.880;2022-12-18T14:16:21;99420.66;;;4.89;42.74
38880;BME280;25887;30.194;-97.880;2022-12-18T14:18:54;99423.41;;;4.94;42.01
38880;BME280;25887;30.194;-97.880;2022-12-18T14:23:46;99430.63;;;5.06;42.85
38880;BME280;25887;30.194;-97.880;2022-12-18T14:26:45;99430.88;;;5.12;42.27
38880;BME280;25887;30.194;-97.880;2022-12-18T14:34:33;99436.31;;;5.66;42.45